sensor_id;sensor_type;location;lat;lon;timestamp;P1;durP1;ratioP1;P2;durP2;ratioP2
74791;SDS011;63319;46.046;17.802;2023-08-06T00:00:21;2.40;;;1.30;;
74791;SDS011;63319;46.046;17.802;2023-08-06T00:03:25;2.77;;;1.33;;
74791;SDS011;63319;46.046;17.802;2023-08-06T00:06:28;3.65;;;1.35;;
74791;SDS011;63319;46.046;17.802;2023-08-06T00:09:30;3.08;;;1.42;;
74791;SDS011;63319;46.046;17.802;2023-08-06T00:12:34;2.20;;;1.35;;
74791;SDS011;63319;46.046;17.802;2023-08-06T00:15:36;2.85;;;1.45;;
74791;SDS011;63319;46.046;17.802;2023-08-06T00:18:40;3.13;;;1.27;;
74791;SDS011;63319;46.046;17.802;2023-08-06T00:21:43;3.97;;;1.50;;
74791;SDS011;63319;46.046;17.802;2023-08-06T00:24:46;2.22;;;1.08;;
74791;SDS011;63319;46.046;17.802;2023-08-06T00:27:48;3.00;;;1.30;;
74791;SDS011;63319;46.046;17.802;2023-08-06T00:30:54;3.20;;;1.40;;
74791;SDS011;63319;46.046;17.802;2023-08-06T00:33:58;3.67;;;1.33;;
74791;SDS011;63319;46.046;17.802;2023-08-06T00:37:01;4.22;;;1.23;;
74791;SDS011;63319;46.046;17.802;2023-08-06T00:40:05;3.35;;;1.42;;
74791;SDS011;63319;46.046;17.802;2023-08-06T00:43:09;4.07;;;1.50;;
74791;SDS011;63319;46.046;17.802;2023-08-06T00:46:13;4.03;;;1.60;;
74791;SDS011;63319;46.046;17.802;2023-08-06T00:49:16;4.17;;;1.80;;
74791;SDS011;63319;46.046;17.802;2023-08-06T00:52:19;2.55;;;1.20;;
74791;SDS011;63319;46.046;17.802;2023-08-06T00:55:22;3.08;;;1.40;;
74791;SDS011;63319;46.046;17.802;2023-08-06T00:58:26;3.42;;;1.30;;
74791;SDS011;63319;46.046;17.802;2023-08-06T01:01:28;3.20;;;1.30;;
74791;SDS011;63319;46.046;17.802;2023-08-06T01:04:32;3.47;;;1.60;;
74791;SDS011;63319;46.046;17.802;2023-08-06T01:07:55;2.97;;;1.40;;
74791;SDS011;63319;46.046;17.802;2023-08-06T01:14:37;3.83;;;1.40;;
74791;SDS011;63319;46.046;17.802;2023-08-06T01:17:44;2.95;;;1.30;;
74791;SDS011;63319;46.046;17.802;2023-08-06T01:20:48;3.83;;;1.37;;
74791;SDS011;63319;46.046;17.802;2023-08-06T01:23:52;3.47;;;1.30;;
74791;SDS011;63319;46.046;17.802;2023-08-06T01:27:04;2.75;;;1.20;;
74791;SDS011;63319;46.046;17.802;2023-08-06T01:30:16;2.97;;;1.20;;
74791;SDS011;63319;46.046;17.802;2023-08-06T01:33:22;3.22;;;1.35;;
74791;SDS011;63319;46.046;17.802;2023-08-06T01:36:26;3.50;;;1.40;;
74791;SDS011;63319;46.046;17.802;2023-08-06T01:39:32;3.72;;;1.17;;
74791;SDS011;63319;46.046;17.802;2023-08-06T01:42:38;4.40;;;1.80;;
74791;SDS011;63319;46.046;17.802;2023-08-06T01:45:42;3.65;;;1.20;;
74791;SDS011;63319;46.046;17.802;2023-08-06T01:48:45;3.85;;;1.45;;
74791;SDS011;63319;46.046;17.802;2023-08-06T01:51:48;2.57;;;1.10;;
74791;SDS011;63319;46.046;17.802;2023-08-06T01:54:52;6.05;;;1.20;;
74791;SDS011;63319;46.046;17.802;2023-08-06T01:57:54;3.35;;;1.50;;
74791;SDS011;63319;46.046;17.802;2023-08-06T02:00:58;4.57;;;1.60;;
74791;SDS011;63319;46.046;17.802;2023-08-06T02:04:01;3.78;;;1.40;;
74791;SDS011;63319;46.046;17.802;2023-08-06T02:07:04;4.73;;;1.17;;
74791;SDS011;63319;46.046;17.802;2023-08-06T02:10:07;4.10;;;1.50;;
74791;SDS011;63319;46.046;17.802;2023-08-06T02:13:10;2.20;;;1.20;;
74791;SDS011;63319;46.046;17.802;2023-08-06T02:16:13;2.17;;;1.10;;
74791;SDS011;63319;46.046;17.802;2023-08-06T02:19:16;3.63;;;1.40;;
74791;SDS011;63319;46.046;17.802;2023-08-06T02:22:19;3.50;;;1.20;;
74791;SDS011;63319;46.046;17.802;2023-08-06T02:25:22;2.00;;;1.17;;
74791;SDS011;63319;46.046;17.802;2023-08-06T02:28:26;3.00;;;1.35;;
74791;SDS011;63319;46.046;17.802;2023-08-06T02:31:34;2.53;;;1.20;;
74791;SDS011;63319;46.046;17.802;2023-08-06T02:34:37;2.15;;;1.10;;
74791;SDS011;63319;46.046;17.802;2023-08-06T02:37:40;3.60;;;1.33;;
74791;SDS011;63319;46.046;17.802;2023-08-06T02:40:43;2.72;;;1.42;;
74791;SDS011;63319;46.046;17.802;2023-08-06T02:43:47;1.92;;;1.20;;
74791;SDS011;63319;46.046;17.802;2023-08-06T02:46:50;3.53;;;1.10;;
74791;SDS011;63319;46.046;17.802;2023-08-06T02:49:54;3.72;;;1.42;;
74791;SDS011;63319;46.046;17.802;2023-08-06T02:52:56;2.03;;;1.00;;
74791;SDS011;63319;46.046;17.802;2023-08-06T02:56:00;2.97;;;1.20;;
74791;SDS011;63319;46.046;17.802;2023-08-06T02:59:12;3.05;;;1.20;;
74791;SDS011;63319;46.046;17.802;2023-08-06T03:02:33;3.58;;;1.30;;
74791;SDS011;63319;46.046;17.802;2023-08-06T03:05:51;3.65;;;1.33;;
74791;SDS011;63319;46.046;17.802;2023-08-06T03:09:04;2.90;;;0.90;;
74791;SDS011;63319;46.046;17.802;2023-08-06T03:12:08;3.58;;;0.93;;
74791;SDS011;63319;46.046;17.802;2023-08-06T03:15:12;2.75;;;1.00;;
74791;SDS011;63319;46.046;17.802;2023-08-06T03:18:17;2.30;;;1.00;;
74791;SDS011;63319;46.046;17.802;2023-08-06T03:21:20;3.53;;;1.25;;
74791;SDS011;63319;46.046;17.802;2023-08-06T03:24:24;2.27;;;1.00;;
74791;SDS011;63319;46.046;17.802;2023-08-06T03:27:27;2.40;;;1.00;;
74791;SDS011;63319;46.046;17.802;2023-08-06T03:30:29;2.08;;;1.15;;
74791;SDS011;63319;46.046;17.802;2023-08-06T03:33:32;5.72;;;1.20;;
74791;SDS011;63319;46.046;17.802;2023-08-06T03:36:38;3.00;;;1.05;;
74791;SDS011;63319;46.046;17.802;2023-08-06T03:39:41;3.97;;;1.30;;
74791;SDS011;63319;46.046;17.802;2023-08-06T03:42:44;2.90;;;1.00;;
74791;SDS011;63319;46.046;17.802;2023-08-06T03:45:49;2.42;;;1.10;;
74791;SDS011;63319;46.046;17.802;2023-08-06T03:48:53;1.50;;;0.88;;
74791;SDS011;63319;46.046;17.802;2023-08-06T03:51:56;3.10;;;0.90;;
74791;SDS011;63319;46.046;17.802;2023-08-06T03:55:02;4.93;;;1.10;;
74791;SDS011;63319;46.046;17.802;2023-08-06T03:58:05;2.40;;;1.10;;
74791;SDS011;63319;46.046;17.802;2023-08-06T04:01:08;3.88;;;1.10;;
74791;SDS011;63319;46.046;17.802;2023-08-06T04:04:17;1.60;;;1.00;;
74791;SDS011;63319;46.046;17.802;2023-08-06T04:07:20;1.95;;;1.10;;
74791;SDS011;63319;46.046;17.802;2023-08-06T04:10:24;1.67;;;0.90;;
74791;SDS011;63319;46.046;17.802;2023-08-06T04:13:27;2.30;;;0.95;;
74791;SDS011;63319;46.046;17.802;2023-08-06T04:16:32;2.05;;;1.00;;
74791;SDS011;63319;46.046;17.802;2023-08-06T04:19:36;1.30;;;0.70;;
74791;SDS011;63319;46.046;17.802;2023-08-06T04:22:39;3.25;;;1.00;;
74791;SDS011;63319;46.046;17.802;2023-08-06T04:25:42;2.90;;;0.93;;
74791;SDS011;63319;46.046;17.802;2023-08-06T04:28:45;2.20;;;0.73;;
74791;SDS011;63319;46.046;17.802;2023-08-06T04:31:48;2.47;;;1.00;;
74791;SDS011;63319;46.046;17.802;2023-08-06T04:34:52;1.50;;;1.02;;
74791;SDS011;63319;46.046;17.802;2023-08-06T04:37:55;1.13;;;0.60;;
74791;SDS011;63319;46.046;17.802;2023-08-06T04:40:58;2.07;;;0.77;;
74791;SDS011;63319;46.046;17.802;2023-08-06T04:44:01;1.85;;;0.63;;
74791;SDS011;63319;46.046;17.802;2023-08-06T04:47:06;1.98;;;0.90;;
74791;SDS011;63319;46.046;17.802;2023-08-06T04:50:09;1.90;;;1.00;;
74791;SDS011;63319;46.046;17.802;2023-08-06T04:53:12;2.50;;;1.10;;
74791;SDS011;63319;46.046;17.802;2023-08-06T04:56:15;1.57;;;0.90;;
74791;SDS011;63319;46.046;17.802;2023-08-06T04:59:18;1.98;;;0.70;;
74791;SDS011;63319;46.046;17.802;2023-08-06T05:02:21;1.80;;;0.90;;
74791;SDS011;63319;46.046;17.802;2023-08-06T05:05:24;1.92;;;0.73;;
74791;SDS011;63319;46.046;17.802;2023-08-06T05:08:27;2.10;;;1.23;;
74791;SDS011;63319;46.046;17.802;2023-08-06T05:11:30;2.50;;;0.90;;
74791;SDS011;63319;46.046;17.802;2023-08-06T05:14:33;2.53;;;0.90;;
74791;SDS011;63319;46.046;17.802;2023-08-06T05:17:35;1.80;;;0.80;;
74791;SDS011;63319;46.046;17.802;2023-08-06T05:20:40;2.22;;;0.80;;
74791;SDS011;63319;46.046;17.802;2023-08-06T05:23:43;2.08;;;0.80;;
74791;SDS011;63319;46.046;17.802;2023-08-06T05:26:46;1.60;;;0.67;;
74791;SDS011;63319;46.046;17.802;2023-08-06T05:29:50;1.90;;;0.90;;
74791;SDS011;63319;46.046;17.802;2023-08-06T05:32:57;1.50;;;0.70;;
74791;SDS011;63319;46.046;17.802;2023-08-06T05:36:00;1.63;;;0.88;;
74791;SDS011;63319;46.046;17.802;2023-08-06T05:39:03;2.42;;;0.73;;
74791;SDS011;63319;46.046;17.802;2023-08-06T05:42:06;1.67;;;0.60;;
74791;SDS011;63319;46.046;17.802;2023-08-06T05:45:12;1.80;;;0.68;;
74791;SDS011;63319;46.046;17.802;2023-08-06T05:48:16;2.25;;;1.00;;
74791;SDS011;63319;46.046;17.802;2023-08-06T05:51:19;1.83;;;0.98;;
74791;SDS011;63319;46.046;17.802;2023-08-06T05:54:22;1.50;;;0.88;;
74791;SDS011;63319;46.046;17.802;2023-08-06T05:57:25;3.03;;;0.77;;
74791;SDS011;63319;46.046;17.802;2023-08-06T06:00:28;1.50;;;0.70;;
74791;SDS011;63319;46.046;17.802;2023-08-06T06:03:31;1.35;;;0.63;;
74791;SDS011;63319;46.046;17.802;2023-08-06T06:06:34;1.08;;;0.50;;
74791;SDS011;63319;46.046;17.802;2023-08-06T06:09:37;2.25;;;0.60;;
74791;SDS011;63319;46.046;17.802;2023-08-06T06:12:42;1.63;;;0.70;;
74791;SDS011;63319;46.046;17.802;2023-08-06T06:15:46;1.95;;;0.77;;
74791;SDS011;63319;46.046;17.802;2023-08-06T06:18:50;1.90;;;0.90;;
74791;SDS011;63319;46.046;17.802;2023-08-06T06:21:53;1.88;;;0.80;;
74791;SDS011;63319;46.046;17.802;2023-08-06T06:24:56;1.35;;;0.77;;
74791;SDS011;63319;46.046;17.802;2023-08-06T06:27:59;1.83;;;0.80;;
74791;SDS011;63319;46.046;17.802;2023-08-06T06:31:02;1.83;;;0.70;;
74791;SDS011;63319;46.046;17.802;2023-08-06T06:34:06;1.30;;;0.70;;
74791;SDS011;63319;46.046;17.802;2023-08-06T06:37:09;2.63;;;0.80;;
74791;SDS011;63319;46.046;17.802;2023-08-06T06:40:12;1.55;;;0.80;;
74791;SDS011;63319;46.046;17.802;2023-08-06T06:43:15;1.77;;;0.60;;
74791;SDS011;63319;46.046;17.802;2023-08-06T06:46:17;2.60;;;0.70;;
74791;SDS011;63319;46.046;17.802;2023-08-06T06:49:21;1.20;;;0.65;;
74791;SDS011;63319;46.046;17.802;2023-08-06T06:52:23;2.35;;;0.95;;
74791;SDS011;63319;46.046;17.802;2023-08-06T06:55:26;1.15;;;0.65;;
74791;SDS011;63319;46.046;17.802;2023-08-06T06:58:30;1.40;;;0.77;;
74791;SDS011;63319;46.046;17.802;2023-08-06T07:01:33;3.88;;;0.90;;
74791;SDS011;63319;46.046;17.802;2023-08-06T07:04:37;3.90;;;0.63;;
74791;SDS011;63319;46.046;17.802;2023-08-06T07:07:39;1.77;;;0.55;;
74791;SDS011;63319;46.046;17.802;2023-08-06T07:10:43;1.48;;;0.70;;
74791;SDS011;63319;46.046;17.802;2023-08-06T07:13:49;1.50;;;0.70;;
74791;SDS011;63319;46.046;17.802;2023-08-06T07:16:58;1.77;;;0.77;;
74791;SDS011;63319;46.046;17.802;2023-08-06T07:20:01;1.70;;;0.82;;
74791;SDS011;63319;46.046;17.802;2023-08-06T07:23:04;1.20;;;0.50;;
74791;SDS011;63319;46.046;17.802;2023-08-06T07:26:13;1.00;;;0.70;;
74791;SDS011;63319;46.046;17.802;2023-08-06T07:29:16;1.60;;;0.70;;
74791;SDS011;63319;46.046;17.802;2023-08-06T07:32:23;1.30;;;0.80;;
74791;SDS011;63319;46.046;17.802;2023-08-06T07:35:28;1.13;;;0.57;;
74791;SDS011;63319;46.046;17.802;2023-08-06T07:38:31;1.00;;;0.52;;
74791;SDS011;63319;46.046;17.802;2023-08-06T07:41:34;1.25;;;0.60;;
74791;SDS011;63319;46.046;17.802;2023-08-06T07:44:37;1.23;;;0.50;;
74791;SDS011;63319;46.046;17.802;2023-08-06T07:47:42;1.60;;;0.63;;
74791;SDS011;63319;46.046;17.802;2023-08-06T07:50:45;2.08;;;0.63;;
74791;SDS011;63319;46.046;17.802;2023-08-06T07:53:52;2.15;;;0.60;;
74791;SDS011;63319;46.046;17.802;2023-08-06T07:56:55;2.25;;;0.50;;
74791;SDS011;63319;46.046;17.802;2023-08-06T07:59:58;1.20;;;0.50;;
74791;SDS011;63319;46.046;17.802;2023-08-06T08:03:01;0.93;;;0.50;;
74791;SDS011;63319;46.046;17.802;2023-08-06T08:06:04;1.20;;;0.73;;
74791;SDS011;63319;46.046;17.802;2023-08-06T08:09:07;1.30;;;0.50;;
74791;SDS011;63319;46.046;17.802;2023-08-06T08:12:10;1.50;;;0.80;;
74791;SDS011;63319;46.046;17.802;2023-08-06T08:15:13;1.03;;;0.50;;
74791;SDS011;63319;46.046;17.802;2023-08-06T08:18:16;1.73;;;0.65;;
74791;SDS011;63319;46.046;17.802;2023-08-06T08:21:19;1.20;;;0.70;;
74791;SDS011;63319;46.046;17.802;2023-08-06T08:24:22;0.90;;;0.50;;
74791;SDS011;63319;46.046;17.802;2023-08-06T08:27:28;1.77;;;0.65;;
74791;SDS011;63319;46.046;17.802;2023-08-06T08:30:32;0.90;;;0.60;;
74791;SDS011;63319;46.046;17.802;2023-08-06T08:33:36;0.80;;;0.50;;
74791;SDS011;63319;46.046;17.802;2023-08-06T08:36:42;1.45;;;0.63;;
74791;SDS011;63319;46.046;17.802;2023-08-06T08:39:45;1.67;;;0.77;;
74791;SDS011;63319;46.046;17.802;2023-08-06T08:42:48;1.05;;;0.57;;
74791;SDS011;63319;46.046;17.802;2023-08-06T08:45:52;0.90;;;0.50;;
74791;SDS011;63319;46.046;17.802;2023-08-06T08:49:01;1.10;;;0.70;;
74791;SDS011;63319;46.046;17.802;2023-08-06T08:52:04;1.50;;;0.60;;
74791;SDS011;63319;46.046;17.802;2023-08-06T08:55:14;1.38;;;0.50;;
74791;SDS011;63319;46.046;17.802;2023-08-06T08:58:17;1.10;;;0.60;;
74791;SDS011;63319;46.046;17.802;2023-08-06T09:01:21;0.83;;;0.50;;
74791;SDS011;63319;46.046;17.802;2023-08-06T09:04:24;1.85;;;0.50;;
74791;SDS011;63319;46.046;17.802;2023-08-06T09:07:32;1.45;;;0.77;;
74791;SDS011;63319;46.046;17.802;2023-08-06T09:10:38;1.38;;;0.60;;
74791;SDS011;63319;46.046;17.802;2023-08-06T09:13:43;1.13;;;0.57;;
74791;SDS011;63319;46.046;17.802;2023-08-06T09:16:46;1.10;;;0.60;;
74791;SDS011;63319;46.046;17.802;2023-08-06T09:19:51;1.00;;;0.40;;
74791;SDS011;63319;46.046;17.802;2023-08-06T09:22:54;1.38;;;0.90;;
74791;SDS011;63319;46.046;17.802;2023-08-06T09:25:57;0.68;;;0.50;;
74791;SDS011;63319;46.046;17.802;2023-08-06T09:29:00;1.88;;;0.77;;
74791;SDS011;63319;46.046;17.802;2023-08-06T09:32:03;1.00;;;0.40;;
74791;SDS011;63319;46.046;17.802;2023-08-06T09:35:06;1.80;;;0.65;;
74791;SDS011;63319;46.046;17.802;2023-08-06T09:38:18;0.98;;;0.50;;
74791;SDS011;63319;46.046;17.802;2023-08-06T09:41:27;1.05;;;0.65;;
74791;SDS011;63319;46.046;17.802;2023-08-06T09:44:33;0.70;;;0.50;;
74791;SDS011;63319;46.046;17.802;2023-08-06T09:47:37;1.57;;;0.50;;
74791;SDS011;63319;46.046;17.802;2023-08-06T09:50:40;0.60;;;0.40;;
74791;SDS011;63319;46.046;17.802;2023-08-06T09:53:43;0.90;;;0.60;;
74791;SDS011;63319;46.046;17.802;2023-08-06T09:56:48;0.98;;;0.45;;
74791;SDS011;63319;46.046;17.802;2023-08-06T09:59:52;1.20;;;0.60;;
74791;SDS011;63319;46.046;17.802;2023-08-06T10:02:55;0.63;;;0.30;;
74791;SDS011;63319;46.046;17.802;2023-08-06T10:06:03;0.63;;;0.40;;
74791;SDS011;63319;46.046;17.802;2023-08-06T10:09:09;1.35;;;0.50;;
74791;SDS011;63319;46.046;17.802;2023-08-06T10:12:12;1.05;;;0.63;;
74791;SDS011;63319;46.046;17.802;2023-08-06T10:15:18;0.93;;;0.52;;
74791;SDS011;63319;46.046;17.802;2023-08-06T10:18:27;1.27;;;0.60;;
74791;SDS011;63319;46.046;17.802;2023-08-06T10:21:31;1.25;;;0.50;;
74791;SDS011;63319;46.046;17.802;2023-08-06T10:24:50;1.00;;;0.65;;
74791;SDS011;63319;46.046;17.802;2023-08-06T10:27:57;1.27;;;0.60;;
74791;SDS011;63319;46.046;17.802;2023-08-06T10:31:00;1.85;;;0.75;;
74791;SDS011;63319;46.046;17.802;2023-08-06T10:34:03;1.50;;;0.60;;
74791;SDS011;63319;46.046;17.802;2023-08-06T10:37:06;1.08;;;0.60;;
74791;SDS011;63319;46.046;17.802;2023-08-06T10:40:12;0.98;;;0.60;;
74791;SDS011;63319;46.046;17.802;2023-08-06T10:43:27;0.98;;;0.30;;
74791;SDS011;63319;46.046;17.802;2023-08-06T10:46:32;0.82;;;0.60;;
74791;SDS011;63319;46.046;17.802;2023-08-06T10:49:35;0.60;;;0.40;;
74791;SDS011;63319;46.046;17.802;2023-08-06T10:52:39;0.80;;;0.50;;
74791;SDS011;63319;46.046;17.802;2023-08-06T10:55:42;1.00;;;0.57;;
74791;SDS011;63319;46.046;17.802;2023-08-06T10:58:45;0.75;;;0.38;;
74791;SDS011;63319;46.046;17.802;2023-08-06T11:01:49;0.55;;;0.43;;
74791;SDS011;63319;46.046;17.802;2023-08-06T11:04:52;2.23;;;0.60;;
74791;SDS011;63319;46.046;17.802;2023-08-06T11:07:55;1.95;;;0.50;;
74791;SDS011;63319;46.046;17.802;2023-08-06T11:11:07;1.00;;;0.50;;
74791;SDS011;63319;46.046;17.802;2023-08-06T11:14:15;0.98;;;0.40;;
74791;SDS011;63319;46.046;17.802;2023-08-06T11:17:19;1.15;;;0.50;;
74791;SDS011;63319;46.046;17.802;2023-08-06T11:20:22;0.73;;;0.40;;
74791;SDS011;63319;46.046;17.802;2023-08-06T11:23:27;2.13;;;0.55;;
74791;SDS011;63319;46.046;17.802;2023-08-06T11:26:31;1.35;;;0.57;;
74791;SDS011;63319;46.046;17.802;2023-08-06T11:29:36;0.55;;;0.30;;
74791;SDS011;63319;46.046;17.802;2023-08-06T11:32:46;0.50;;;0.40;;
74791;SDS011;63319;46.046;17.802;2023-08-06T11:35:50;1.00;;;0.40;;
74791;SDS011;63319;46.046;17.802;2023-08-06T11:38:54;1.20;;;0.40;;
74791;SDS011;63319;46.046;17.802;2023-08-06T11:41:57;1.35;;;0.70;;
74791;SDS011;63319;46.046;17.802;2023-08-06T11:45:03;0.70;;;0.40;;
74791;SDS011;63319;46.046;17.802;2023-08-06T11:48:07;0.98;;;0.55;;
74791;SDS011;63319;46.046;17.802;2023-08-06T11:51:13;1.37;;;0.60;;
74791;SDS011;63319;46.046;17.802;2023-08-06T11:54:30;0.93;;;0.47;;
74791;SDS011;63319;46.046;17.802;2023-08-06T11:57:39;1.10;;;0.35;;
74791;SDS011;63319;46.046;17.802;2023-08-06T12:00:45;1.13;;;0.40;;
74791;SDS011;63319;46.046;17.802;2023-08-06T12:03:48;0.90;;;0.50;;
74791;SDS011;63319;46.046;17.802;2023-08-06T12:06:51;1.50;;;0.50;;
74791;SDS011;63319;46.046;17.802;2023-08-06T12:09:55;1.33;;;0.40;;
74791;SDS011;63319;46.046;17.802;2023-08-06T12:12:59;0.45;;;0.32;;
74791;SDS011;63319;46.046;17.802;2023-08-06T12:16:02;0.85;;;0.40;;
74791;SDS011;63319;46.046;17.802;2023-08-06T12:19:05;0.73;;;0.32;;
74791;SDS011;63319;46.046;17.802;2023-08-06T12:22:09;1.00;;;0.50;;
74791;SDS011;63319;46.046;17.802;2023-08-06T12:25:12;1.08;;;0.50;;
74791;SDS011;63319;46.046;17.802;2023-08-06T12:28:15;1.23;;;0.50;;
74791;SDS011;63319;46.046;17.802;2023-08-06T12:31:18;1.35;;;0.50;;
74791;SDS011;63319;46.046;17.802;2023-08-06T12:34:21;1.35;;;0.52;;
74791;SDS011;63319;46.046;17.802;2023-08-06T12:37:28;0.97;;;0.50;;
74791;SDS011;63319;46.046;17.802;2023-08-06T12:40:31;0.93;;;0.50;;
74791;SDS011;63319;46.046;17.802;2023-08-06T12:43:40;0.80;;;0.50;;
74791;SDS011;63319;46.046;17.802;2023-08-06T12:46:43;1.05;;;0.40;;
74791;SDS011;63319;46.046;17.802;2023-08-06T12:49:46;0.90;;;0.40;;
74791;SDS011;63319;46.046;17.802;2023-08-06T12:52:49;0.83;;;0.53;;
74791;SDS011;63319;46.046;17.802;2023-08-06T12:55:52;1.52;;;0.57;;
74791;SDS011;63319;46.046;17.802;2023-08-06T12:58:55;1.15;;;0.40;;
74791;SDS011;63319;46.046;17.802;2023-08-06T13:01:58;0.90;;;0.38;;
74791;SDS011;63319;46.046;17.802;2023-08-06T13:05:01;0.95;;;0.50;;
74791;SDS011;63319;46.046;17.802;2023-08-06T13:08:08;0.93;;;0.50;;
74791;SDS011;63319;46.046;17.802;2023-08-06T13:11:11;0.77;;;0.40;;
74791;SDS011;63319;46.046;17.802;2023-08-06T13:14:14;1.10;;;0.47;;
74791;SDS011;63319;46.046;17.802;2023-08-06T13:17:18;0.60;;;0.40;;
74791;SDS011;63319;46.046;17.802;2023-08-06T13:20:22;1.10;;;0.70;;
74791;SDS011;63319;46.046;17.802;2023-08-06T13:23:25;1.37;;;0.60;;
74791;SDS011;63319;46.046;17.802;2023-08-06T13:26:29;0.63;;;0.40;;
74791;SDS011;63319;46.046;17.802;2023-08-06T13:29:33;0.82;;;0.52;;
74791;SDS011;63319;46.046;17.802;2023-08-06T13:32:39;1.30;;;0.40;;
74791;SDS011;63319;46.046;17.802;2023-08-06T13:35:43;0.40;;;0.30;;
74791;SDS011;63319;46.046;17.802;2023-08-06T13:38:47;0.70;;;0.50;;
74791;SDS011;63319;46.046;17.802;2023-08-06T13:41:53;0.85;;;0.50;;
74791;SDS011;63319;46.046;17.802;2023-08-06T13:44:56;3.20;;;0.40;;
74791;SDS011;63319;46.046;17.802;2023-08-06T13:48:05;0.88;;;0.43;;
74791;SDS011;63319;46.046;17.802;2023-08-06T13:51:09;1.00;;;0.60;;
74791;SDS011;63319;46.046;17.802;2023-08-06T13:54:14;0.70;;;0.40;;
74791;SDS011;63319;46.046;17.802;2023-08-06T13:57:18;0.60;;;0.50;;
74791;SDS011;63319;46.046;17.802;2023-08-06T14:00:22;1.02;;;0.60;;
74791;SDS011;63319;46.046;17.802;2023-08-06T14:03:26;0.52;;;0.40;;
74791;SDS011;63319;46.046;17.802;2023-08-06T14:06:29;1.15;;;0.57;;
74791;SDS011;63319;46.046;17.802;2023-08-06T14:09:34;0.90;;;0.40;;
74791;SDS011;63319;46.046;17.802;2023-08-06T14:12:37;0.60;;;0.40;;
74791;SDS011;63319;46.046;17.802;2023-08-06T14:15:41;0.73;;;0.50;;
74791;SDS011;63319;46.046;17.802;2023-08-06T14:18:44;0.82;;;0.40;;
74791;SDS011;63319;46.046;17.802;2023-08-06T14:21:48;1.73;;;0.70;;
74791;SDS011;63319;46.046;17.802;2023-08-06T14:24:53;0.70;;;0.40;;
74791;SDS011;63319;46.046;17.802;2023-08-06T14:27:57;1.20;;;0.63;;
74791;SDS011;63319;46.046;17.802;2023-08-06T14:31:06;1.08;;;0.60;;
74791;SDS011;63319;46.046;17.802;2023-08-06T14:34:09;1.15;;;0.40;;
74791;SDS011;63319;46.046;17.802;2023-08-06T14:37:13;1.77;;;0.40;;
74791;SDS011;63319;46.046;17.802;2023-08-06T14:40:17;1.07;;;0.60;;
74791;SDS011;63319;46.046;17.802;2023-08-06T14:43:20;1.00;;;0.60;;
74791;SDS011;63319;46.046;17.802;2023-08-06T14:46:24;0.57;;;0.40;;
74791;SDS011;63319;46.046;17.802;2023-08-06T14:49:28;1.42;;;0.52;;
74791;SDS011;63319;46.046;17.802;2023-08-06T14:52:32;0.77;;;0.50;;
74791;SDS011;63319;46.046;17.802;2023-08-06T14:55:38;0.67;;;0.40;;
74791;SDS011;63319;46.046;17.802;2023-08-06T14:58:41;1.10;;;0.40;;
74791;SDS011;63319;46.046;17.802;2023-08-06T15:01:46;1.00;;;0.50;;
74791;SDS011;63319;46.046;17.802;2023-08-06T15:04:51;0.68;;;0.32;;
74791;SDS011;63319;46.046;17.802;2023-08-06T15:07:55;0.75;;;0.45;;
74791;SDS011;63319;46.046;17.802;2023-08-06T15:10:59;1.00;;;0.40;;
74791;SDS011;63319;46.046;17.802;2023-08-06T15:14:05;0.88;;;0.50;;
74791;SDS011;63319;46.046;17.802;2023-08-06T15:17:09;0.90;;;0.60;;
74791;SDS011;63319;46.046;17.802;2023-08-06T15:20:13;0.88;;;0.47;;
74791;SDS011;63319;46.046;17.802;2023-08-06T15:23:16;1.35;;;0.50;;
74791;SDS011;63319;46.046;17.802;2023-08-06T15:26:20;0.47;;;0.30;;
74791;SDS011;63319;46.046;17.802;2023-08-06T15:29:26;0.68;;;0.40;;
74791;SDS011;63319;46.046;17.802;2023-08-06T15:32:30;1.27;;;0.68;;
74791;SDS011;63319;46.046;17.802;2023-08-06T15:35:33;0.95;;;0.47;;
74791;SDS011;63319;46.046;17.802;2023-08-06T15:38:37;0.93;;;0.40;;
74791;SDS011;63319;46.046;17.802;2023-08-06T15:41:40;1.53;;;0.60;;
74791;SDS011;63319;46.046;17.802;2023-08-06T15:44:44;1.08;;;0.60;;
74791;SDS011;63319;46.046;17.802;2023-08-06T15:47:47;1.60;;;0.65;;
74791;SDS011;63319;46.046;17.802;2023-08-06T15:50:51;1.13;;;0.52;;
74791;SDS011;63319;46.046;17.802;2023-08-06T15:53:55;0.85;;;0.50;;
74791;SDS011;63319;46.046;17.802;2023-08-06T15:56:58;0.70;;;0.40;;
74791;SDS011;63319;46.046;17.802;2023-08-06T16:00:03;1.08;;;0.60;;
74791;SDS011;63319;46.046;17.802;2023-08-06T16:03:13;0.90;;;0.50;;
74791;SDS011;63319;46.046;17.802;2023-08-06T16:06:16;0.50;;;0.38;;
74791;SDS011;63319;46.046;17.802;2023-08-06T16:09:20;0.98;;;0.40;;
74791;SDS011;63319;46.046;17.802;2023-08-06T16:12:26;1.07;;;0.57;;
74791;SDS011;63319;46.046;17.802;2023-08-06T16:15:30;0.60;;;0.30;;
74791;SDS011;63319;46.046;17.802;2023-08-06T16:18:35;0.52;;;0.30;;
74791;SDS011;63319;46.046;17.802;2023-08-06T16:21:38;1.38;;;0.60;;
74791;SDS011;63319;46.046;17.802;2023-08-06T16:24:42;1.17;;;0.60;;
74791;SDS011;63319;46.046;17.802;2023-08-06T16:27:45;1.10;;;0.60;;
74791;SDS011;63319;46.046;17.802;2023-08-06T16:30:48;1.02;;;0.40;;
74791;SDS011;63319;46.046;17.802;2023-08-06T16:33:51;0.93;;;0.30;;
74791;SDS011;63319;46.046;17.802;2023-08-06T16:36:54;0.70;;;0.40;;
74791;SDS011;63319;46.046;17.802;2023-08-06T16:39:58;0.52;;;0.40;;
74791;SDS011;63319;46.046;17.802;2023-08-06T16:43:02;1.10;;;0.40;;
74791;SDS011;63319;46.046;17.802;2023-08-06T16:46:05;1.17;;;0.40;;
74791;SDS011;63319;46.046;17.802;2023-08-06T16:49:12;0.75;;;0.40;;
74791;SDS011;63319;46.046;17.802;2023-08-06T16:52:16;1.30;;;0.50;;
74791;SDS011;63319;46.046;17.802;2023-08-06T16:55:20;1.10;;;0.40;;
74791;SDS011;63319;46.046;17.802;2023-08-06T16:58:24;3.00;;;0.43;;
74791;SDS011;63319;46.046;17.802;2023-08-06T17:01:28;1.40;;;0.30;;
74791;SDS011;63319;46.046;17.802;2023-08-06T17:04:32;2.33;;;0.50;;
74791;SDS011;63319;46.046;17.802;2023-08-06T17:07:35;0.93;;;0.40;;
74791;SDS011;63319;46.046;17.802;2023-08-06T17:10:39;1.10;;;0.57;;
74791;SDS011;63319;46.046;17.802;2023-08-06T17:13:42;1.47;;;0.50;;
74791;SDS011;63319;46.046;17.802;2023-08-06T17:16:46;1.65;;;0.40;;
74791;SDS011;63319;46.046;17.802;2023-08-06T17:19:50;1.40;;;0.40;;
74791;SDS011;63319;46.046;17.802;2023-08-06T17:22:55;0.88;;;0.38;;
74791;SDS011;63319;46.046;17.802;2023-08-06T17:25:58;0.60;;;0.40;;
74791;SDS011;63319;46.046;17.802;2023-08-06T17:29:05;0.60;;;0.40;;
74791;SDS011;63319;46.046;17.802;2023-08-06T17:32:09;0.82;;;0.40;;
74791;SDS011;63319;46.046;17.802;2023-08-06T17:35:13;0.55;;;0.40;;
74791;SDS011;63319;46.046;17.802;2023-08-06T17:38:17;1.95;;;0.40;;
74791;SDS011;63319;46.046;17.802;2023-08-06T17:41:21;0.50;;;0.40;;
74791;SDS011;63319;46.046;17.802;2023-08-06T17:44:24;0.47;;;0.33;;
74791;SDS011;63319;46.046;17.802;2023-08-06T17:47:29;1.02;;;0.47;;
74791;SDS011;63319;46.046;17.802;2023-08-06T17:50:39;0.88;;;0.30;;
74791;SDS011;63319;46.046;17.802;2023-08-06T17:53:42;0.65;;;0.40;;
74791;SDS011;63319;46.046;17.802;2023-08-06T17:56:45;0.75;;;0.50;;
74791;SDS011;63319;46.046;17.802;2023-08-06T17:59:49;2.77;;;0.50;;
74791;SDS011;63319;46.046;17.802;2023-08-06T18:02:52;0.73;;;0.45;;
74791;SDS011;63319;46.046;17.802;2023-08-06T18:05:56;0.95;;;0.50;;
74791;SDS011;63319;46.046;17.802;2023-08-06T18:09:00;1.23;;;0.60;;
74791;SDS011;63319;46.046;17.802;2023-08-06T18:12:05;0.93;;;0.60;;
74791;SDS011;63319;46.046;17.802;2023-08-06T18:15:12;1.00;;;0.50;;